Station History

Weather Underground - logo

Station Historical Data
Daily Summary for October 11, 2018 Units:  Both    English   Metric
« Previous Day
Next Day »
Daily Weekly Monthly Yearly Custom
  High: Low: Average:
Temperature: 74 °F /  23.3 °C 53.5 °F /  11.9 °C 62.8 °F /  17.1 °C
Dew Point: 55 °F /  12.8 °C 49.8 °F /  9.9 °C 52.6 °F /  11.4 °C
Humidity: 88 % 48 % 71 %
Wind Speed: 5 mph /  8 km/h - 0.8 mph /  1.3 km/h
Wind Gust: 2.8 mph /  4.5 km/h - -
Wind:- - SW
Pressure: 29.87 in /  1011.4 hPa 29.76 in /  1007.7 hPa -
Precipitation: 0 in /  0 mm    
Historical Graphs
 
 
Tabular Data for October 11, 2018
Time Temperature Dew Point Pressure Wind Wind Speed Wind Gust Humidity Rainfall Rate (Hourly)
00:04 56.8 °F /  13.8 °C 51.4 °F /  10.8 °C 29.79 in /  1008.7 hPa SE 1.2 mph /  1.9 km/h   82 % 0 in /  0 mm
00:09 56.7 °F /  13.7 °C 51.3 °F /  10.7 °C 29.80 in /  1009 hPa Calm     82 % 0 in /  0 mm
00:14 56.5 °F /  13.6 °C 51.1 °F /  10.6 °C 29.80 in /  1009 hPa Calm     82 % 0 in /  0 mm
00:19 56.3 °F /  13.5 °C 51.2 °F /  10.7 °C 29.80 in /  1009 hPa Calm     83 % 0 in /  0 mm
00:24 56.1 °F /  13.4 °C 51 °F /  10.6 °C 29.80 in /  1009 hPa Calm     83 % 0 in /  0 mm
00:29 55.9 °F /  13.3 °C 50.8 °F /  10.4 °C 29.80 in /  1009 hPa Calm     83 % 0 in /  0 mm
00:34 55.7 °F /  13.2 °C 50.9 °F /  10.5 °C 29.80 in /  1009 hPa Calm     84 % 0 in /  0 mm
00:39 55.6 °F /  13.1 °C 50.8 °F /  10.4 °C 29.80 in /  1009 hPa SE 1 mph /  1.6 km/h 0.1 mph /  0.2 km/h 84 % 0 in /  0 mm
00:44 55.6 °F /  13.1 °C 50.8 °F /  10.4 °C 29.80 in /  1009 hPa Calm     84 % 0 in /  0 mm
00:49 55.5 °F /  13.1 °C 50.7 °F /  10.4 °C 29.80 in /  1009 hPa SE 1.2 mph /  1.9 km/h   84 % 0 in /  0 mm
00:54 55.4 °F /  13 °C 50.6 °F /  10.3 °C 29.80 in /  1009 hPa Calm     84 % 0 in /  0 mm
00:59 55.4 °F /  13 °C 50.6 °F /  10.3 °C 29.80 in /  1009 hPa SE 1.2 mph /  1.9 km/h   84 % 0 in /  0 mm
01:04 55.4 °F /  13 °C 50.6 °F /  10.3 °C 29.80 in /  1009 hPa Calm   0.1 mph /  0.2 km/h 84 % 0 in /  0 mm
01:09 55.3 °F /  12.9 °C 50.5 °F /  10.3 °C 29.80 in /  1009 hPa ESE 1.2 mph /  1.9 km/h   84 % 0 in /  0 mm
01:14 55.4 °F /  13 °C 50.6 °F /  10.3 °C 29.80 in /  1009 hPa Calm     84 % 0 in /  0 mm
01:19 55.4 °F /  13 °C 50.6 °F /  10.3 °C 29.80 in /  1009 hPa SE 1.2 mph /  1.9 km/h   84 % 0 in /  0 mm
01:24 55.4 °F /  13 °C 50.6 °F /  10.3 °C 29.80 in /  1009 hPa SE 1.2 mph /  1.9 km/h   84 % 0 in /  0 mm
01:29 55.5 °F /  13.1 °C 50.7 °F /  10.4 °C 29.80 in /  1009 hPa Calm     84 % 0 in /  0 mm
01:34 55.5 °F /  13.1 °C 50.7 °F /  10.4 °C 29.80 in /  1009 hPa Calm   0.1 mph /  0.2 km/h 84 % 0 in /  0 mm
01:39 55.4 °F /  13 °C 50.6 °F /  10.3 °C 29.80 in /  1009 hPa Calm   0.1 mph /  0.2 km/h 84 % 0 in /  0 mm
01:44 55.4 °F /  13 °C 50.6 °F /  10.3 °C 29.80 in /  1009 hPa SE 1.2 mph /  1.9 km/h 0.4 mph /  0.6 km/h 84 % 0 in /  0 mm
01:49 55.3 °F /  12.9 °C 50.5 °F /  10.3 °C 29.80 in /  1009 hPa Calm     84 % 0 in /  0 mm
01:54 55.4 °F /  13 °C 50.6 °F /  10.3 °C 29.80 in /  1009 hPa Calm     84 % 0 in /  0 mm
01:59 55.3 °F /  12.9 °C 50.5 °F /  10.3 °C 29.80 in /  1009 hPa ESE 1.2 mph /  1.9 km/h   84 % 0 in /  0 mm
02:04 55.3 °F /  12.9 °C 50.5 °F /  10.3 °C 29.80 in /  1009 hPa Calm     84 % 0 in /  0 mm
02:09 55.3 °F /  12.9 °C 50.5 °F /  10.3 °C 29.80 in /  1009 hPa Calm     84 % 0 in /  0 mm
02:14 55.1 °F /  12.8 °C 50.4 °F /  10.2 °C 29.80 in /  1009 hPa Calm     84 % 0 in /  0 mm
02:19 55 °F /  12.8 °C 50.6 °F /  10.3 °C 29.80 in /  1009 hPa Calm     85 % 0 in /  0 mm
02:24 54.9 °F /  12.7 °C 50.5 °F /  10.3 °C 29.80 in /  1009 hPa Calm     85 % 0 in /  0 mm
02:29 54.7 °F /  12.6 °C 50.3 °F /  10.2 °C 29.80 in /  1009 hPa Calm     85 % 0 in /  0 mm
02:34 54.6 °F /  12.6 °C 50.2 °F /  10.1 °C 29.80 in /  1009 hPa Calm     85 % 0 in /  0 mm
02:39 54.6 °F /  12.6 °C 50.2 °F /  10.1 °C 29.80 in /  1009 hPa Calm     85 % 0 in /  0 mm
02:44 54.5 °F /  12.5 °C 50.1 °F /  10.1 °C 29.80 in /  1009 hPa Calm     85 % 0 in /  0 mm
02:49 54.4 °F /  12.4 °C 50.3 °F /  10.2 °C 29.79 in /  1008.7 hPa Calm     86 % 0 in /  0 mm
02:54 54.3 °F /  12.4 °C 50.2 °F /  10.1 °C 29.80 in /  1009 hPa Calm     86 % 0 in /  0 mm
02:59 54.3 °F /  12.4 °C 50.2 °F /  10.1 °C 29.79 in /  1008.7 hPa ESE 1.2 mph /  1.9 km/h   86 % 0 in /  0 mm
03:04 54.3 °F /  12.4 °C 50.2 °F /  10.1 °C 29.79 in /  1008.7 hPa Calm     86 % 0 in /  0 mm
03:09 54.3 °F /  12.4 °C 50.2 °F /  10.1 °C 29.79 in /  1008.7 hPa ESE 1.2 mph /  1.9 km/h   86 % 0 in /  0 mm
03:14 54.3 °F /  12.4 °C 50.2 °F /  10.1 °C 29.79 in /  1008.7 hPa ESE 1.2 mph /  1.9 km/h   86 % 0 in /  0 mm
03:19 54.3 °F /  12.4 °C 50.2 °F /  10.1 °C 29.79 in /  1008.7 hPa Calm     86 % 0 in /  0 mm
03:24 54.3 °F /  12.4 °C 50.2 °F /  10.1 °C 29.79 in /  1008.7 hPa Calm     86 % 0 in /  0 mm
03:29 54.3 °F /  12.4 °C 50.2 °F /  10.1 °C 29.79 in /  1008.7 hPa Calm     86 % 0 in /  0 mm
03:34 54.2 °F /  12.3 °C 50.1 °F /  10.1 °C 29.79 in /  1008.7 hPa SSE 1.2 mph /  1.9 km/h   86 % 0 in /  0 mm
03:39 54.1 °F /  12.3 °C 50 °F /  10 °C 29.79 in /  1008.7 hPa Calm     86 % 0 in /  0 mm
03:44 54.1 °F /  12.3 °C 50 °F /  10 °C 29.79 in /  1008.7 hPa Calm     86 % 0 in /  0 mm
03:49 54.1 °F /  12.3 °C 50 °F /  10 °C 29.79 in /  1008.7 hPa Calm     86 % 0 in /  0 mm
03:54 54 °F /  12.2 °C 49.9 °F /  9.9 °C 29.79 in /  1008.7 hPa Calm     86 % 0 in /  0 mm
03:59 53.8 °F /  12.1 °C 50 °F /  10 °C 29.79 in /  1008.7 hPa SE 1.2 mph /  1.9 km/h   87 % 0 in /  0 mm
04:04 53.7 °F /  12.1 °C 49.9 °F /  9.9 °C 29.79 in /  1008.7 hPa SE 1.2 mph /  1.9 km/h 0.1 mph /  0.2 km/h 87 % 0 in /  0 mm
04:09 53.7 °F /  12.1 °C 49.9 °F /  9.9 °C 29.79 in /  1008.7 hPa Calm     87 % 0 in /  0 mm
04:14 53.7 °F /  12.1 °C 49.9 °F /  9.9 °C 29.79 in /  1008.7 hPa East 1.2 mph /  1.9 km/h 0.2 mph /  0.3 km/h 87 % 0 in /  0 mm
04:19 53.9 °F /  12.2 °C 50.1 °F /  10.1 °C 29.79 in /  1008.7 hPa ESE 1.2 mph /  1.9 km/h   87 % 0 in /  0 mm
04:24 54 °F /  12.2 °C 50.2 °F /  10.1 °C 29.79 in /  1008.7 hPa ESE 1.2 mph /  1.9 km/h   87 % 0 in /  0 mm
04:29 53.8 °F /  12.1 °C 50 °F /  10 °C 29.79 in /  1008.7 hPa Calm     87 % 0 in /  0 mm
04:34 53.7 °F /  12.1 °C 49.9 °F /  9.9 °C 29.79 in /  1008.7 hPa Calm     87 % 0 in /  0 mm
04:39 53.7 °F /  12.1 °C 49.9 °F /  9.9 °C 29.79 in /  1008.7 hPa Calm     87 % 0 in /  0 mm
04:44 53.6 °F /  12 °C 49.8 °F /  9.9 °C 29.79 in /  1008.7 hPa Calm     87 % 0 in /  0 mm
04:49 53.6 °F /  12 °C 49.8 °F /  9.9 °C 29.79 in /  1008.7 hPa Calm     87 % 0 in /  0 mm
04:54 53.5 °F /  11.9 °C 50 °F /  10 °C 29.80 in /  1009 hPa Calm     88 % 0 in /  0 mm
04:59 53.7 °F /  12.1 °C 50.2 °F /  10.1 °C 29.80 in /  1009 hPa SE 1 mph /  1.6 km/h   88 % 0 in /  0 mm
05:04 54 °F /  12.2 °C 50.5 °F /  10.3 °C 29.80 in /  1009 hPa Calm     88 % 0 in /  0 mm
05:09 54.2 °F /  12.3 °C 50.4 °F /  10.2 °C 29.80 in /  1009 hPa Calm   0.1 mph /  0.2 km/h 87 % 0 in /  0 mm
05:14 54.3 °F /  12.4 °C 50.5 °F /  10.3 °C 29.80 in /  1009 hPa Calm     87 % 0 in /  0 mm
05:19 54.3 °F /  12.4 °C 50.5 °F /  10.3 °C 29.80 in /  1009 hPa SE 1.2 mph /  1.9 km/h 0.2 mph /  0.3 km/h 87 % 0 in /  0 mm
05:24 54.3 °F /  12.4 °C 50.5 °F /  10.3 °C 29.80 in /  1009 hPa Calm     87 % 0 in /  0 mm
05:29 54.2 °F /  12.3 °C 50.4 °F /  10.2 °C 29.80 in /  1009 hPa SE 1.2 mph /  1.9 km/h   87 % 0 in /  0 mm
05:34 54.1 °F /  12.3 °C 50.3 °F /  10.2 °C 29.80 in /  1009 hPa Calm     87 % 0 in /  0 mm
05:39 54 °F /  12.2 °C 50.2 °F /  10.1 °C 29.80 in /  1009 hPa Calm     87 % 0 in /  0 mm
05:44 54 °F /  12.2 °C 50.2 °F /  10.1 °C 29.80 in /  1009 hPa SE 1.2 mph /  1.9 km/h   87 % 0 in /  0 mm
05:49 54.1 °F /  12.3 °C 50.3 °F /  10.2 °C 29.81 in /  1009.4 hPa ESE 1.2 mph /  1.9 km/h   87 % 0 in /  0 mm
05:54 54.2 °F /  12.3 °C 50.4 °F /  10.2 °C 29.81 in /  1009.4 hPa SE 1.2 mph /  1.9 km/h 0.1 mph /  0.2 km/h 87 % 0 in /  0 mm
05:59 54.3 °F /  12.4 °C 50.5 °F /  10.3 °C 29.81 in /  1009.4 hPa Calm     87 % 0 in /  0 mm
06:04 54.3 °F /  12.4 °C 50.5 °F /  10.3 °C 29.81 in /  1009.4 hPa Calm     87 % 0 in /  0 mm
06:09 54.3 °F /  12.4 °C 50.5 °F /  10.3 °C 29.81 in /  1009.4 hPa Calm     87 % 0 in /  0 mm
06:14 54.3 °F /  12.4 °C 50.5 °F /  10.3 °C 29.81 in /  1009.4 hPa Calm     87 % 0 in /  0 mm
06:19 54.2 °F /  12.3 °C 50.4 °F /  10.2 °C 29.82 in /  1009.7 hPa Calm     87 % 0 in /  0 mm
06:24 54.2 °F /  12.3 °C 50.4 °F /  10.2 °C 29.82 in /  1009.7 hPa Calm   0.1 mph /  0.2 km/h 87 % 0 in /  0 mm
06:29 54.2 °F /  12.3 °C 50.4 °F /  10.2 °C 29.82 in /  1009.7 hPa Calm     87 % 0 in /  0 mm
06:34 54.2 °F /  12.3 °C 50.4 °F /  10.2 °C 29.83 in /  1010 hPa Calm     87 % 0 in /  0 mm
06:39 54.2 °F /  12.3 °C 50.4 °F /  10.2 °C 29.83 in /  1010 hPa Calm     87 % 0 in /  0 mm
06:44 54.2 °F /  12.3 °C 50.4 °F /  10.2 °C 29.83 in /  1010 hPa Calm     87 % 0 in /  0 mm
06:49 54.2 °F /  12.3 °C 50.4 °F /  10.2 °C 29.83 in /  1010 hPa Calm     87 % 0 in /  0 mm
06:54 54.1 °F /  12.3 °C 50.3 °F /  10.2 °C 29.83 in /  1010 hPa Calm     87 % 0 in /  0 mm
06:59 54.2 °F /  12.3 °C 50.4 °F /  10.2 °C 29.83 in /  1010 hPa Calm     87 % 0 in /  0 mm
07:04 54.3 °F /  12.4 °C 50.5 °F /  10.3 °C 29.84 in /  1010.4 hPa Calm     87 % 0 in /  0 mm
07:09 54.3 °F /  12.4 °C 50.5 °F /  10.3 °C 29.84 in /  1010.4 hPa Calm     87 % 0 in /  0 mm
07:14 54.5 °F /  12.5 °C 50.7 °F /  10.4 °C 29.84 in /  1010.4 hPa Calm     87 % 0 in /  0 mm
07:19 54.6 °F /  12.6 °C 50.5 °F /  10.3 °C 29.84 in /  1010.4 hPa Calm     86 % 0 in /  0 mm
07:24 54.8 °F /  12.7 °C 50.7 °F /  10.4 °C 29.84 in /  1010.4 hPa Calm     86 % 0 in /  0 mm
07:29 55 °F /  12.8 °C 50.9 °F /  10.5 °C 29.84 in /  1010.4 hPa ESE 1.2 mph /  1.9 km/h   86 % 0 in /  0 mm
07:34 55.3 °F /  12.9 °C 51.2 °F /  10.7 °C 29.84 in /  1010.4 hPa SE 1.2 mph /  1.9 km/h   86 % 0 in /  0 mm
07:39 55.7 °F /  13.2 °C 51.3 °F /  10.7 °C 29.84 in /  1010.4 hPa Calm     85 % 0 in /  0 mm
07:44 56 °F /  13.3 °C 51.6 °F /  10.9 °C 29.85 in /  1010.7 hPa Calm     85 % 0 in /  0 mm
07:49 56.4 °F /  13.6 °C 51.6 °F /  10.9 °C 29.85 in /  1010.7 hPa Calm     84 % 0 in /  0 mm
07:54 56.8 °F /  13.8 °C 52 °F /  11.1 °C 29.85 in /  1010.7 hPa Calm     84 % 0 in /  0 mm
07:59 57.1 °F /  13.9 °C 52 °F /  11.1 °C 29.85 in /  1010.7 hPa SE 1.2 mph /  1.9 km/h 0.1 mph /  0.2 km/h 83 % 0 in /  0 mm
08:04 57.5 °F /  14.2 °C 52.4 °F /  11.3 °C 29.85 in /  1010.7 hPa Calm     83 % 0 in /  0 mm
08:09 57.9 °F /  14.4 °C 52.4 °F /  11.3 °C 29.86 in /  1011.1 hPa Calm     82 % 0 in /  0 mm
08:14 58.3 °F /  14.6 °C 52.8 °F /  11.6 °C 29.86 in /  1011.1 hPa Calm     82 % 0 in /  0 mm
08:19 58.7 °F /  14.8 °C 53.2 °F /  11.8 °C 29.86 in /  1011.1 hPa Calm     82 % 0 in /  0 mm
08:24 59 °F /  15 °C 53.5 °F /  11.9 °C 29.86 in /  1011.1 hPa Calm     82 % 0 in /  0 mm
08:29 59.4 °F /  15.2 °C 53.6 °F /  12 °C 29.86 in /  1011.1 hPa Calm     81 % 0 in /  0 mm
08:34 59.7 °F /  15.4 °C 53.5 °F /  11.9 °C 29.86 in /  1011.1 hPa Calm     80 % 0 in /  0 mm
08:39 60 °F /  15.6 °C 53.5 °F /  11.9 °C 29.86 in /  1011.1 hPa Calm     79 % 0 in /  0 mm
08:44 60.3 °F /  15.7 °C 53.4 °F /  11.9 °C 29.87 in /  1011.4 hPa Calm     78 % 0 in /  0 mm
08:49 60.6 °F /  15.9 °C 53.7 °F /  12.1 °C 29.87 in /  1011.4 hPa Calm   0.1 mph /  0.2 km/h 78 % 0 in /  0 mm
08:54 60.8 °F /  16 °C 53.5 °F /  11.9 °C 29.87 in /  1011.4 hPa SSE 1.2 mph /  1.9 km/h   77 % 0 in /  0 mm
08:59 61 °F /  16.1 °C 53.4 °F /  11.9 °C 29.87 in /  1011.4 hPa Calm     76 % 0 in /  0 mm
09:04 61.1 °F /  16.2 °C 53.5 °F /  11.9 °C 29.87 in /  1011.4 hPa Calm     76 % 0 in /  0 mm
09:09 61.3 °F /  16.3 °C 53.7 °F /  12.1 °C 29.87 in /  1011.4 hPa Calm     76 % 0 in /  0 mm
09:14 61.6 °F /  16.4 °C 54 °F /  12.2 °C 29.87 in /  1011.4 hPa Calm     76 % 0 in /  0 mm
09:19 61.8 °F /  16.6 °C 53.8 °F /  12.1 °C 29.87 in /  1011.4 hPa Calm     75 % 0 in /  0 mm
09:24 62 °F /  16.7 °C 54 °F /  12.2 °C 29.87 in /  1011.4 hPa SE 1 mph /  1.6 km/h 0.2 mph /  0.3 km/h 75 % 0 in /  0 mm
09:29 62.3 °F /  16.8 °C 53.9 °F /  12.2 °C 29.87 in /  1011.4 hPa SE 1.2 mph /  1.9 km/h 0.1 mph /  0.2 km/h 74 % 0 in /  0 mm
09:34 62.6 °F /  17 °C 53.8 °F /  12.1 °C 29.87 in /  1011.4 hPa SSE 2.3 mph /  3.7 km/h 0.1 mph /  0.2 km/h 73 % 0 in /  0 mm
09:39 62.9 °F /  17.2 °C 53.7 °F /  12.1 °C 29.87 in /  1011.4 hPa ESE 2.3 mph /  3.7 km/h   72 % 0 in /  0 mm
09:44 63.3 °F /  17.4 °C 54.1 °F /  12.3 °C 29.87 in /  1011.4 hPa SSE 1.2 mph /  1.9 km/h 0.1 mph /  0.2 km/h 72 % 0 in /  0 mm
09:49 63.9 °F /  17.7 °C 53.5 °F /  11.9 °C 29.87 in /  1011.4 hPa Calm     69 % 0 in /  0 mm
09:54 64.4 °F /  18 °C 53.6 °F /  12 °C 29.87 in /  1011.4 hPa South 2.3 mph /  3.7 km/h 0.2 mph /  0.3 km/h 68 % 0 in /  0 mm
09:59 64.7 °F /  18.2 °C 53.1 °F /  11.7 °C 29.87 in /  1011.4 hPa ESE 3.5 mph /  5.6 km/h 0.3 mph /  0.5 km/h 66 % 0 in /  0 mm
10:04 65.2 °F /  18.4 °C 53.1 °F /  11.7 °C 29.87 in /  1011.4 hPa Calm     65 % 0 in /  0 mm
10:09 65.9 °F /  18.8 °C 53.4 °F /  11.9 °C 29.87 in /  1011.4 hPa ESE 1.2 mph /  1.9 km/h 0.3 mph /  0.5 km/h 64 % 0 in /  0 mm
10:14 66.8 °F /  19.3 °C 53.8 °F /  12.1 °C 29.87 in /  1011.4 hPa East 1.2 mph /  1.9 km/h 0.1 mph /  0.2 km/h 63 % 0 in /  0 mm
10:19 67.4 °F /  19.7 °C 53.5 °F /  11.9 °C 29.87 in /  1011.4 hPa East 2.3 mph /  3.7 km/h 0.2 mph /  0.3 km/h 61 % 0 in /  0 mm
10:24 67.8 °F /  19.9 °C 53.9 °F /  12.2 °C 29.87 in /  1011.4 hPa Calm     61 % 0 in /  0 mm
10:29 68.1 °F /  20.1 °C 52.8 °F /  11.6 °C 29.87 in /  1011.4 hPa Calm   0.1 mph /  0.2 km/h 58 % 0 in /  0 mm
10:34 68.5 °F /  20.3 °C 53.6 °F /  12 °C 29.87 in /  1011.4 hPa SSE 2.3 mph /  3.7 km/h   59 % 0 in /  0 mm
10:39 69.1 °F /  20.6 °C 52.7 °F /  11.5 °C 29.87 in /  1011.4 hPa Calm   0.1 mph /  0.2 km/h 56 % 0 in /  0 mm
10:44 69.2 °F /  20.7 °C 52.8 °F /  11.6 °C 29.87 in /  1011.4 hPa South 2.3 mph /  3.7 km/h 0.1 mph /  0.2 km/h 56 % 0 in /  0 mm
10:49 68.7 °F /  20.4 °C 51.9 °F /  11.1 °C 29.87 in /  1011.4 hPa ESE 1.2 mph /  1.9 km/h   55 % 0 in /  0 mm
10:54 69 °F /  20.6 °C 52.6 °F /  11.4 °C 29.87 in /  1011.4 hPa East 2.3 mph /  3.7 km/h 0.3 mph /  0.5 km/h 56 % 0 in /  0 mm
10:59 69.5 °F /  20.8 °C 52.6 °F /  11.4 °C 29.87 in /  1011.4 hPa ESE 1.2 mph /  1.9 km/h 0.3 mph /  0.5 km/h 55 % 0 in /  0 mm
11:04 69.6 °F /  20.9 °C 52.7 °F /  11.5 °C 29.86 in /  1011.1 hPa SE 1.2 mph /  1.9 km/h 0.1 mph /  0.2 km/h 55 % 0 in /  0 mm
11:09 69.9 °F /  21.1 °C 52.5 °F /  11.4 °C 29.86 in /  1011.1 hPa NNW 2.3 mph /  3.7 km/h 1 mph /  1.6 km/h 54 % 0 in /  0 mm
11:14 69.5 °F /  20.8 °C 52.1 °F /  11.2 °C 29.86 in /  1011.1 hPa NW 1.2 mph /  1.9 km/h 0.3 mph /  0.5 km/h 54 % 0 in /  0 mm
11:19 69.5 °F /  20.8 °C 51.6 °F /  10.9 °C 29.86 in /  1011.1 hPa NW 2.3 mph /  3.7 km/h 1.2 mph /  1.9 km/h 53 % 0 in /  0 mm
11:24 69.4 °F /  20.8 °C 52 °F /  11.1 °C 29.86 in /  1011.1 hPa NNW 2.3 mph /  3.7 km/h 0.2 mph /  0.3 km/h 54 % 0 in /  0 mm
11:29 69.8 °F /  21 °C 53.4 °F /  11.9 °C 29.86 in /  1011.1 hPa Calm   0.2 mph /  0.3 km/h 56 % 0 in /  0 mm
11:34 70.3 °F /  21.3 °C 52.9 °F /  11.6 °C 29.86 in /  1011.1 hPa West 1.2 mph /  1.9 km/h   54 % 0 in /  0 mm
11:39 70.6 °F /  21.4 °C 52.6 °F /  11.4 °C 29.85 in /  1010.7 hPa SW 2.3 mph /  3.7 km/h   53 % 0 in /  0 mm
11:44 70.6 °F /  21.4 °C 53.1 °F /  11.7 °C 29.85 in /  1010.7 hPa NW 2.3 mph /  3.7 km/h 0.3 mph /  0.5 km/h 54 % 0 in /  0 mm
11:49 70.6 °F /  21.4 °C 53.6 °F /  12 °C 29.85 in /  1010.7 hPa Calm     55 % 0 in /  0 mm
11:54 70.9 °F /  21.6 °C 52.4 °F /  11.3 °C 29.85 in /  1010.7 hPa WNW 3 mph /  4.8 km/h 1.1 mph /  1.8 km/h 52 % 0 in /  0 mm
11:59 71.2 °F /  21.8 °C 53.7 °F /  12.1 °C 29.85 in /  1010.7 hPa Calm   0.1 mph /  0.2 km/h 54 % 0 in /  0 mm
12:04 71.3 °F /  21.8 °C 52.8 °F /  11.6 °C 29.85 in /  1010.7 hPa NW 2.3 mph /  3.7 km/h 0.9 mph /  1.4 km/h 52 % 0 in /  0 mm
12:09 71 °F /  21.7 °C 53 °F /  11.7 °C 29.84 in /  1010.4 hPa SSW 1.2 mph /  1.9 km/h   53 % 0 in /  0 mm
12:14 71.5 °F /  21.9 °C 52.9 °F /  11.6 °C 29.84 in /  1010.4 hPa NNW 3.5 mph /  5.6 km/h 1.9 mph /  3.1 km/h 52 % 0 in /  0 mm
12:19 71.6 °F /  22 °C 53 °F /  11.7 °C 29.84 in /  1010.4 hPa WNW 2.3 mph /  3.7 km/h 1.4 mph /  2.3 km/h 52 % 0 in /  0 mm
12:24 71.5 °F /  21.9 °C 52.9 °F /  11.6 °C 29.84 in /  1010.4 hPa WNW 1.2 mph /  1.9 km/h 0.1 mph /  0.2 km/h 52 % 0 in /  0 mm
12:29 71.7 °F /  22.1 °C 53.1 °F /  11.7 °C 29.83 in /  1010 hPa West 3.5 mph /  5.6 km/h 1.1 mph /  1.8 km/h 52 % 0 in /  0 mm
12:34 72.1 °F /  22.3 °C 53.5 °F /  11.9 °C 29.83 in /  1010 hPa WNW 1 mph /  1.6 km/h   52 % 0 in /  0 mm
12:39 72 °F /  22.2 °C 52.3 °F /  11.3 °C 29.83 in /  1010 hPa NW 1.2 mph /  1.9 km/h 1.3 mph /  2.1 km/h 50 % 0 in /  0 mm
12:44 71.9 °F /  22.2 °C 52.8 °F /  11.6 °C 29.83 in /  1010 hPa WSW 2.3 mph /  3.7 km/h 0.7 mph /  1.1 km/h 51 % 0 in /  0 mm
12:49 72.2 °F /  22.3 °C 53.6 °F /  12 °C 29.82 in /  1009.7 hPa West 2 mph /  3.2 km/h 1.1 mph /  1.8 km/h 52 % 0 in /  0 mm
12:54 72.2 °F /  22.3 °C 52.5 °F /  11.4 °C 29.82 in /  1009.7 hPa NW 1.2 mph /  1.9 km/h   50 % 0 in /  0 mm
12:59 72.3 °F /  22.4 °C 52.6 °F /  11.4 °C 29.82 in /  1009.7 hPa NNW 2.3 mph /  3.7 km/h 0.2 mph /  0.3 km/h 50 % 0 in /  0 mm
13:04 72.3 °F /  22.4 °C 53.7 °F /  12.1 °C 29.82 in /  1009.7 hPa NW 1.2 mph /  1.9 km/h 1.2 mph /  1.9 km/h 52 % 0 in /  0 mm
13:09 72 °F /  22.2 °C 53.4 °F /  11.9 °C 29.81 in /  1009.4 hPa Calm     52 % 0 in /  0 mm
13:14 72.4 °F /  22.4 °C 53.8 °F /  12.1 °C 29.81 in /  1009.4 hPa East 3.5 mph /  5.6 km/h 0.3 mph /  0.5 km/h 52 % 0 in /  0 mm
13:19 72.7 °F /  22.6 °C 53.5 °F /  11.9 °C 29.81 in /  1009.4 hPa WSW 2.3 mph /  3.7 km/h   51 % 0 in /  0 mm
13:24 73 °F /  22.8 °C 53.8 °F /  12.1 °C 29.81 in /  1009.4 hPa SSE 3.5 mph /  5.6 km/h   51 % 0 in /  0 mm
13:29 73.1 °F /  22.8 °C 53.4 °F /  11.9 °C 29.80 in /  1009 hPa NNE 2.3 mph /  3.7 km/h 0.7 mph /  1.1 km/h 50 % 0 in /  0 mm
13:34 73.3 °F /  22.9 °C 54.6 °F /  12.6 °C 29.80 in /  1009 hPa SSW 2.3 mph /  3.7 km/h 1.2 mph /  1.9 km/h 52 % 0 in /  0 mm
13:39 73.8 °F /  23.2 °C 54.5 °F /  12.5 °C 29.80 in /  1009 hPa NNW 3.5 mph /  5.6 km/h 1 mph /  1.6 km/h 51 % 0 in /  0 mm
13:44 73.5 °F /  23.1 °C 53.7 °F /  12.1 °C 29.80 in /  1009 hPa NW 3 mph /  4.8 km/h 0.8 mph /  1.3 km/h 50 % 0 in /  0 mm
13:49 73.3 °F /  22.9 °C 53.5 °F /  11.9 °C 29.79 in /  1008.7 hPa NNW 3.5 mph /  5.6 km/h 0.1 mph /  0.2 km/h 50 % 0 in /  0 mm
13:54 73.2 °F /  22.9 °C 54 °F /  12.2 °C 29.79 in /  1008.7 hPa Calm     51 % 0 in /  0 mm
13:59 73.4 °F /  23 °C 53.6 °F /  12 °C 29.79 in /  1008.7 hPa WNW 3 mph /  4.8 km/h 1.5 mph /  2.4 km/h 50 % 0 in /  0 mm
14:04 73.6 °F /  23.1 °C 54.4 °F /  12.4 °C 29.79 in /  1008.7 hPa NW 1.2 mph /  1.9 km/h 0.4 mph /  0.6 km/h 51 % 0 in /  0 mm
14:09 74 °F /  23.3 °C 54.2 °F /  12.3 °C 29.79 in /  1008.7 hPa WNW 1.2 mph /  1.9 km/h 0.8 mph /  1.3 km/h 50 % 0 in /  0 mm
14:14 73.6 °F /  23.1 °C 53.3 °F /  11.8 °C 29.79 in /  1008.7 hPa NW 3.5 mph /  5.6 km/h 2.8 mph /  4.5 km/h 49 % 0 in /  0 mm
14:19 73.2 °F /  22.9 °C 53.4 °F /  11.9 °C 29.78 in /  1008.4 hPa WNW 2.3 mph /  3.7 km/h 0.3 mph /  0.5 km/h 50 % 0 in /  0 mm
14:24 73.1 °F /  22.8 °C 53.9 °F /  12.2 °C 29.78 in /  1008.4 hPa WNW 1.2 mph /  1.9 km/h 0.3 mph /  0.5 km/h 51 % 0 in /  0 mm
14:29 73.3 °F /  22.9 °C 53 °F /  11.7 °C 29.78 in /  1008.4 hPa NW 1 mph /  1.6 km/h 0.3 mph /  0.5 km/h 49 % 0 in /  0 mm
14:34 73.3 °F /  22.9 °C 54.1 °F /  12.3 °C 29.78 in /  1008.4 hPa NNW 3.5 mph /  5.6 km/h 1.3 mph /  2.1 km/h 51 % 0 in /  0 mm
14:39 73.3 °F /  22.9 °C 53.5 °F /  11.9 °C 29.77 in /  1008 hPa NW 1.2 mph /  1.9 km/h 0.9 mph /  1.4 km/h 50 % 0 in /  0 mm
14:44 73.3 °F /  22.9 °C 53.5 °F /  11.9 °C 29.77 in /  1008 hPa NW 2.3 mph /  3.7 km/h 0.9 mph /  1.4 km/h 50 % 0 in /  0 mm
14:49 73.6 °F /  23.1 °C 53.8 °F /  12.1 °C 29.77 in /  1008 hPa NW 2.3 mph /  3.7 km/h 1.2 mph /  1.9 km/h 50 % 0 in /  0 mm
14:54 73.7 °F /  23.2 °C 53.3 °F /  11.8 °C 29.77 in /  1008 hPa West 2.3 mph /  3.7 km/h 1 mph /  1.6 km/h 49 % 0 in /  0 mm
14:59 73.7 °F /  23.2 °C 53.3 °F /  11.8 °C 29.77 in /  1008 hPa WNW 1.2 mph /  1.9 km/h 0.5 mph /  0.8 km/h 49 % 0 in /  0 mm
15:04 73.6 °F /  23.1 °C 53.3 °F /  11.8 °C 29.77 in /  1008 hPa NW 3.5 mph /  5.6 km/h 2.4 mph /  3.9 km/h 49 % 0 in /  0 mm
15:09 73.3 °F /  22.9 °C 53 °F /  11.7 °C 29.77 in /  1008 hPa North 4 mph /  6.4 km/h 1.3 mph /  2.1 km/h 49 % 0 in /  0 mm
15:14 73.4 °F /  23 °C 53.1 °F /  11.7 °C 29.77 in /  1008 hPa WNW 3.5 mph /  5.6 km/h 1.7 mph /  2.7 km/h 49 % 0 in /  0 mm
15:19 73.4 °F /  23 °C 53.1 °F /  11.7 °C 29.77 in /  1008 hPa Calm     49 % 0 in /  0 mm
15:24 73.6 °F /  23.1 °C 52.7 °F /  11.5 °C 29.77 in /  1008 hPa West 1 mph /  1.6 km/h   48 % 0 in /  0 mm
15:29 73.4 °F /  23 °C 53.6 °F /  12 °C 29.77 in /  1008 hPa NNW 2.3 mph /  3.7 km/h 1.7 mph /  2.7 km/h 50 % 0 in /  0 mm
15:34 73.5 °F /  23.1 °C 53.2 °F /  11.8 °C 29.77 in /  1008 hPa WNW 2 mph /  3.2 km/h 1.5 mph /  2.4 km/h 49 % 0 in /  0 mm
15:39 73.6 °F /  23.1 °C 53.3 °F /  11.8 °C 29.77 in /  1008 hPa Calm     49 % 0 in /  0 mm
15:44 73.7 °F /  23.2 °C 53.9 °F /  12.2 °C 29.77 in /  1008 hPa NW 3 mph /  4.8 km/h 1.5 mph /  2.4 km/h 50 % 0 in /  0 mm
15:49 73.6 °F /  23.1 °C 53.8 °F /  12.1 °C 29.77 in /  1008 hPa WNW 3.5 mph /  5.6 km/h 1.5 mph /  2.4 km/h 50 % 0 in /  0 mm
15:54 73.4 °F /  23 °C 53.1 °F /  11.7 °C 29.76 in /  1007.7 hPa NW 2.3 mph /  3.7 km/h 1.1 mph /  1.8 km/h 49 % 0 in /  0 mm
15:59 73.2 °F /  22.9 °C 53.4 °F /  11.9 °C 29.76 in /  1007.7 hPa NW 3 mph /  4.8 km/h 1.1 mph /  1.8 km/h 50 % 0 in /  0 mm
16:04 73 °F /  22.8 °C 53.8 °F /  12.1 °C 29.77 in /  1008 hPa NNW 2.3 mph /  3.7 km/h 0.8 mph /  1.3 km/h 51 % 0 in /  0 mm
16:09 73.1 °F /  22.8 °C 54.4 °F /  12.4 °C 29.77 in /  1008 hPa NW 4.6 mph /  7.4 km/h 1.5 mph /  2.4 km/h 52 % 0 in /  0 mm
16:14 72.9 °F /  22.7 °C 53.7 °F /  12.1 °C 29.76 in /  1007.7 hPa NW 2.3 mph /  3.7 km/h 0.5 mph /  0.8 km/h 51 % 0 in /  0 mm
16:19 72.8 °F /  22.7 °C 53.6 °F /  12 °C 29.77 in /  1008 hPa WSW 3.5 mph /  5.6 km/h 0.4 mph /  0.6 km/h 51 % 0 in /  0 mm
16:24 72.8 °F /  22.7 °C 54.1 °F /  12.3 °C 29.76 in /  1007.7 hPa North 5 mph /  8 km/h 1.4 mph /  2.3 km/h 52 % 0 in /  0 mm
16:29 72.8 °F /  22.7 °C 54.1 °F /  12.3 °C 29.76 in /  1007.7 hPa NW 1.2 mph /  1.9 km/h   52 % 0 in /  0 mm
16:34 72.7 °F /  22.6 °C 54.1 °F /  12.3 °C 29.77 in /  1008 hPa NW 4.6 mph /  7.4 km/h 1.6 mph /  2.6 km/h 52 % 0 in /  0 mm
16:39 72.6 °F /  22.6 °C 54 °F /  12.2 °C 29.76 in /  1007.7 hPa NW 2.3 mph /  3.7 km/h 0.5 mph /  0.8 km/h 52 % 0 in /  0 mm
16:44 72.7 °F /  22.6 °C 54.6 °F /  12.6 °C 29.76 in /  1007.7 hPa WNW 2.3 mph /  3.7 km/h 0.2 mph /  0.3 km/h 53 % 0 in /  0 mm
16:49 72.6 °F /  22.6 °C 54 °F /  12.2 °C 29.77 in /  1008 hPa West 1.2 mph /  1.9 km/h 0.1 mph /  0.2 km/h 52 % 0 in /  0 mm
16:54 72.4 °F /  22.4 °C 54.3 °F /  12.4 °C 29.76 in /  1007.7 hPa Calm     53 % 0 in /  0 mm
16:59 72.2 °F /  22.3 °C 53.6 °F /  12 °C 29.77 in /  1008 hPa NNW 2.3 mph /  3.7 km/h 1.4 mph /  2.3 km/h 52 % 0 in /  0 mm
17:04 72.1 °F /  22.3 °C 54 °F /  12.2 °C 29.77 in /  1008 hPa Calm   0.5 mph /  0.8 km/h 53 % 0 in /  0 mm
17:09 72.1 °F /  22.3 °C 54.5 °F /  12.5 °C 29.77 in /  1008 hPa WNW 3.5 mph /  5.6 km/h 0.7 mph /  1.1 km/h 54 % 0 in /  0 mm
17:14 72 °F /  22.2 °C 54.4 °F /  12.4 °C 29.76 in /  1007.7 hPa NW 2 mph /  3.2 km/h 0.7 mph /  1.1 km/h 54 % 0 in /  0 mm
17:19 71.9 °F /  22.2 °C 53.8 °F /  12.1 °C 29.77 in /  1008 hPa NW 2.3 mph /  3.7 km/h 1.5 mph /  2.4 km/h 53 % 0 in /  0 mm
17:24 71.7 °F /  22.1 °C 54.2 °F /  12.3 °C 29.77 in /  1008 hPa NW 1.2 mph /  1.9 km/h   54 % 0 in /  0 mm
17:29 71.5 °F /  21.9 °C 54 °F /  12.2 °C 29.77 in /  1008 hPa West 1.2 mph /  1.9 km/h 0.3 mph /  0.5 km/h 54 % 0 in /  0 mm
17:34 71.4 °F /  21.9 °C 54.4 °F /  12.4 °C 29.77 in /  1008 hPa Calm     55 % 0 in /  0 mm
17:39 71.2 °F /  21.8 °C 54.2 °F /  12.3 °C 29.77 in /  1008 hPa Calm     55 % 0 in /  0 mm
17:44 71 °F /  21.7 °C 54 °F /  12.2 °C 29.77 in /  1008 hPa Calm     55 % 0 in /  0 mm
17:49 70.8 °F /  21.6 °C 54.3 °F /  12.4 °C 29.77 in /  1008 hPa Calm   0.1 mph /  0.2 km/h 56 % 0 in /  0 mm
17:54 70.6 °F /  21.4 °C 54.1 °F /  12.3 °C 29.77 in /  1008 hPa Calm   0.1 mph /  0.2 km/h 56 % 0 in /  0 mm
17:59 70.3 °F /  21.3 °C 54.3 °F /  12.4 °C 29.77 in /  1008 hPa Calm     57 % 0 in /  0 mm
18:04 70.1 °F /  21.2 °C 54.6 °F /  12.6 °C 29.77 in /  1008 hPa Calm     58 % 0 in /  0 mm
18:09 69.8 °F /  21 °C 54.4 °F /  12.4 °C 29.77 in /  1008 hPa Calm     58 % 0 in /  0 mm
18:14 69.5 °F /  20.8 °C 54.5 °F /  12.5 °C 29.77 in /  1008 hPa Calm     59 % 0 in /  0 mm
18:19 69.2 °F /  20.7 °C 54.3 °F /  12.4 °C 29.77 in /  1008 hPa Calm     59 % 0 in /  0 mm
18:24 68.9 °F /  20.5 °C 54.4 °F /  12.4 °C 29.77 in /  1008 hPa Calm     60 % 0 in /  0 mm
18:29 68.5 °F /  20.3 °C 55 °F /  12.8 °C 29.77 in /  1008 hPa Calm     62 % 0 in /  0 mm
18:34 68.2 °F /  20.1 °C 54.7 °F /  12.6 °C 29.77 in /  1008 hPa Calm     62 % 0 in /  0 mm
18:39 67.9 °F /  19.9 °C 54.4 °F /  12.4 °C 29.77 in /  1008 hPa Calm     62 % 0 in /  0 mm
18:44 67.8 °F /  19.9 °C 54.3 °F /  12.4 °C 29.77 in /  1008 hPa Calm     62 % 0 in /  0 mm
18:49 67.7 °F /  19.8 °C 54.2 °F /  12.3 °C 29.77 in /  1008 hPa Calm     62 % 0 in /  0 mm
18:54 67.6 °F /  19.8 °C 54.1 °F /  12.3 °C 29.77 in /  1008 hPa Calm     62 % 0 in /  0 mm
18:59 67.4 °F /  19.7 °C 54.8 °F /  12.7 °C 29.77 in /  1008 hPa Calm     64 % 0 in /  0 mm
19:04 67 °F /  19.4 °C 54.8 °F /  12.7 °C 29.77 in /  1008 hPa Calm     65 % 0 in /  0 mm
19:09 66.6 °F /  19.2 °C 54.5 °F /  12.5 °C 29.78 in /  1008.4 hPa Calm     65 % 0 in /  0 mm
19:14 66.2 °F /  19 °C 54.5 °F /  12.5 °C 29.78 in /  1008.4 hPa Calm     66 % 0 in /  0 mm
19:19 65.8 °F /  18.8 °C 54.5 °F /  12.5 °C 29.78 in /  1008.4 hPa Calm     67 % 0 in /  0 mm
19:24 65.6 °F /  18.7 °C 54.8 °F /  12.7 °C 29.79 in /  1008.7 hPa Calm     68 % 0 in /  0 mm
19:29 65.4 °F /  18.6 °C 54.6 °F /  12.6 °C 29.79 in /  1008.7 hPa Calm     68 % 0 in /  0 mm
19:34 65.1 °F /  18.4 °C 54.3 °F /  12.4 °C 29.79 in /  1008.7 hPa Calm     68 % 0 in /  0 mm
19:39 64.8 °F /  18.2 °C 54.8 °F /  12.7 °C 29.79 in /  1008.7 hPa Calm     70 % 0 in /  0 mm
19:44 64.5 °F /  18.1 °C 54.9 °F /  12.7 °C 29.79 in /  1008.7 hPa Calm     71 % 0 in /  0 mm
19:49 64.2 °F /  17.9 °C 54.6 °F /  12.6 °C 29.79 in /  1008.7 hPa Calm     71 % 0 in /  0 mm
19:54 64 °F /  17.8 °C 54.8 °F /  12.7 °C 29.79 in /  1008.7 hPa Calm     72 % 0 in /  0 mm
19:59 63.8 °F /  17.7 °C 54.6 °F /  12.6 °C 29.79 in /  1008.7 hPa Calm     72 % 0 in /  0 mm
20:04 63.6 °F /  17.6 °C 54.4 °F /  12.4 °C 29.79 in /  1008.7 hPa Calm     72 % 0 in /  0 mm
20:09 63.4 °F /  17.4 °C 54.6 °F /  12.6 °C 29.79 in /  1008.7 hPa Calm     73 % 0 in /  0 mm
20:14 63.2 °F /  17.3 °C 54.8 °F /  12.7 °C 29.79 in /  1008.7 hPa Calm     74 % 0 in /  0 mm
20:19 63 °F /  17.2 °C 54.6 °F /  12.6 °C 29.80 in /  1009 hPa Calm     74 % 0 in /  0 mm
20:24 62.8 °F /  17.1 °C 54.4 °F /  12.4 °C 29.80 in /  1009 hPa Calm     74 % 0 in /  0 mm
20:29 62.5 °F /  16.9 °C 54.5 °F /  12.5 °C 29.80 in /  1009 hPa Calm     75 % 0 in /  0 mm
20:34 62.2 °F /  16.8 °C 54.2 °F /  12.3 °C 29.80 in /  1009 hPa Calm     75 % 0 in /  0 mm
20:39 62 °F /  16.7 °C 54.3 °F /  12.4 °C 29.80 in /  1009 hPa Calm     76 % 0 in /  0 mm
20:44 61.7 °F /  16.5 °C 54.1 °F /  12.3 °C 29.80 in /  1009 hPa Calm     76 % 0 in /  0 mm
20:49 61.6 °F /  16.4 °C 54.3 °F /  12.4 °C 29.80 in /  1009 hPa Calm     77 % 0 in /  0 mm
20:54 61.6 °F /  16.4 °C 54.3 °F /  12.4 °C 29.80 in /  1009 hPa Calm     77 % 0 in /  0 mm
20:59 61.5 °F /  16.4 °C 54.2 °F /  12.3 °C 29.80 in /  1009 hPa Calm     77 % 0 in /  0 mm
21:04 61.3 °F /  16.3 °C 54.4 °F /  12.4 °C 29.81 in /  1009.4 hPa Calm     78 % 0 in /  0 mm
21:09 61 °F /  16.1 °C 54.1 °F /  12.3 °C 29.81 in /  1009.4 hPa Calm     78 % 0 in /  0 mm
21:14 60.6 °F /  15.9 °C 54 °F /  12.2 °C 29.81 in /  1009.4 hPa Calm     79 % 0 in /  0 mm
21:19 60.3 °F /  15.7 °C 53.8 °F /  12.1 °C 29.81 in /  1009.4 hPa Calm     79 % 0 in /  0 mm
21:24 60.1 °F /  15.6 °C 53.6 °F /  12 °C 29.81 in /  1009.4 hPa Calm     79 % 0 in /  0 mm
21:29 59.9 °F /  15.5 °C 53.4 °F /  11.9 °C 29.82 in /  1009.7 hPa Calm     79 % 0 in /  0 mm
21:34 59.8 °F /  15.4 °C 53.3 °F /  11.8 °C 29.82 in /  1009.7 hPa Calm     79 % 0 in /  0 mm
21:39 59.7 °F /  15.4 °C 53.5 °F /  11.9 °C 29.82 in /  1009.7 hPa Calm     80 % 0 in /  0 mm
21:44 59.5 °F /  15.3 °C 53.7 °F /  12.1 °C 29.82 in /  1009.7 hPa Calm     81 % 0 in /  0 mm
21:49 59.3 °F /  15.2 °C 53.5 °F /  11.9 °C 29.82 in /  1009.7 hPa Calm     81 % 0 in /  0 mm
21:54 59.1 °F /  15.1 °C 53.6 °F /  12 °C 29.82 in /  1009.7 hPa Calm     82 % 0 in /  0 mm
21:59 58.9 °F /  14.9 °C 53.4 °F /  11.9 °C 29.82 in /  1009.7 hPa Calm     82 % 0 in /  0 mm
22:04 58.8 °F /  14.9 °C 53.3 °F /  11.8 °C 29.82 in /  1009.7 hPa Calm     82 % 0 in /  0 mm
22:09 58.7 °F /  14.8 °C 53.9 °F /  12.2 °C 29.82 in /  1009.7 hPa Calm     84 % 0 in /  0 mm
22:14 58.6 °F /  14.8 °C 53.5 °F /  11.9 °C 29.83 in /  1010 hPa Calm     83 % 0 in /  0 mm
22:19 58.4 °F /  14.7 °C 53.3 °F /  11.8 °C 29.83 in /  1010 hPa Calm     83 % 0 in /  0 mm
22:24 58.4 °F /  14.7 °C 53.9 °F /  12.2 °C 29.83 in /  1010 hPa Calm     85 % 0 in /  0 mm
22:29 58.6 °F /  14.8 °C 54.1 °F /  12.3 °C 29.83 in /  1010 hPa Calm     85 % 0 in /  0 mm
22:34 58.7 °F /  14.8 °C 54.2 °F /  12.3 °C 29.83 in /  1010 hPa Calm     85 % 0 in /  0 mm
22:39 58.6 °F /  14.8 °C 54.1 °F /  12.3 °C 29.83 in /  1010 hPa Calm     85 % 0 in /  0 mm
22:44 58.6 °F /  14.8 °C 54.1 °F /  12.3 °C 29.83 in /  1010 hPa Calm     85 % 0 in /  0 mm
22:49 58.6 °F /  14.8 °C 53.8 °F /  12.1 °C 29.83 in /  1010 hPa Calm     84 % 0 in /  0 mm
22:54 58.6 °F /  14.8 °C 53.5 °F /  11.9 °C 29.83 in /  1010 hPa Calm     83 % 0 in /  0 mm
22:59 58.5 °F /  14.7 °C 53.7 °F /  12.1 °C 29.83 in /  1010 hPa Calm     84 % 0 in /  0 mm
23:04 58.4 °F /  14.7 °C 53.6 °F /  12 °C 29.83 in /  1010 hPa Calm     84 % 0 in /  0 mm
23:09 58.3 °F /  14.6 °C 53.5 °F /  11.9 °C 29.83 in /  1010 hPa Calm     84 % 0 in /  0 mm
23:14 58.2 °F /  14.6 °C 53.7 °F /  12.1 °C 29.84 in /  1010.4 hPa Calm     85 % 0 in /  0 mm
23:19 58.2 °F /  14.6 °C 53.4 °F /  11.9 °C 29.84 in /  1010.4 hPa Calm     84 % 0 in /  0 mm
23:24 58.4 °F /  14.7 °C 53.6 °F /  12 °C 29.83 in /  1010 hPa Calm     84 % 0 in /  0 mm
23:29 58.4 °F /  14.7 °C 53.6 °F /  12 °C 29.83 in /  1010 hPa Calm     84 % 0 in /  0 mm
23:34 58.3 °F /  14.6 °C 53.8 °F /  12.1 °C 29.83 in /  1010 hPa Calm     85 % 0 in /  0 mm
23:39 58.2 °F /  14.6 °C 53.7 °F /  12.1 °C 29.83 in /  1010 hPa Calm     85 % 0 in /  0 mm
23:44 57.8 °F /  14.3 °C 53 °F /  11.7 °C 29.83 in /  1010 hPa Calm     84 % 0 in /  0 mm
23:49 57.6 °F /  14.2 °C 53.1 °F /  11.7 °C 29.83 in /  1010 hPa Calm     85 % 0 in /  0 mm
23:54 57.5 °F /  14.2 °C 53.3 °F /  11.8 °C 29.83 in /  1010 hPa Calm     86 % 0 in /  0 mm
23:59 57.3 °F /  14.1 °C 53.1 °F /  11.7 °C 29.83 in /  1010 hPa Calm     86 % 0 in /  0 mm
Park Place, Exeter, Tulare County, California, USA
Compliments of Weather Underground - 2.75 mb